createdAt,value
2017-11-05T00:01:59.042Z,11.96
2017-11-05T00:04:32.453Z,11.96
2017-11-05T00:07:13.700Z,11.94
2017-11-05T00:09:57.211Z,11.94
2017-11-05T00:15:20.383Z,11.94
2017-11-05T00:17:59.084Z,11.88
2017-11-05T00:20:32.424Z,11.87
2017-11-05T00:23:08.011Z,11.87
2017-11-05T00:25:51.982Z,11.87
2017-11-05T00:28:31.568Z,11.90
2017-11-05T00:31:13.097Z,11.88
2017-11-05T00:34:07.528Z,11.89
2017-11-05T00:36:44.352Z,11.89
2017-11-05T00:42:11.343Z,11.89
2017-11-05T00:44:42.237Z,11.90
2017-11-05T00:47:17.475Z,11.92
2017-11-05T00:49:48.474Z,11.93
2017-11-05T00:52:24.345Z,11.92
2017-11-05T00:54:58.011Z,11.90
2017-11-05T00:57:33.327Z,11.91
2017-11-05T01:00:05.389Z,11.89
2017-11-05T01:02:38.153Z,11.90
2017-11-05T01:05:20.008Z,11.85
2017-11-05T01:07:51.909Z,11.85
2017-11-05T01:10:33.677Z,11.86
2017-11-05T01:13:12.759Z,11.81
2017-11-05T01:15:46.613Z,11.78
2017-11-05T01:18:17.820Z,11.77
2017-11-05T01:21:09.289Z,11.79
2017-11-05T01:23:40.410Z,11.77
2017-11-05T01:26:11.409Z,11.73
2017-11-05T01:28:42.671Z,11.70
2017-11-05T01:31:16.585Z,11.69
2017-11-05T01:33:54.675Z,11.68
2017-11-05T01:36:47.278Z,11.68
2017-11-05T01:39:20.265Z,11.67
2017-11-05T01:42:09.363Z,11.60
2017-11-05T01:44:44.847Z,11.57
2017-11-05T01:47:28.371Z,11.48
2017-11-05T01:49:59.658Z,11.54
2017-11-05T01:52:30.578Z,11.50
2017-11-05T01:55:02.678Z,11.54
2017-11-05T01:57:33.550Z,11.54
2017-11-05T02:00:08.580Z,11.48
2017-11-05T02:02:40.190Z,11.49
2017-11-05T02:07:48.579Z,11.47
2017-11-05T02:10:29.525Z,11.52
2017-11-05T02:13:05.149Z,11.56
2017-11-05T02:15:39.519Z,11.57
2017-11-05T02:18:15.655Z,11.63
2017-11-05T02:20:48.140Z,11.67
2017-11-05T02:23:21.045Z,11.67
2017-11-05T02:26:01.127Z,11.70
2017-11-05T02:28:36.950Z,11.72
2017-11-05T02:31:08.062Z,11.73
2017-11-05T02:33:39.906Z,11.68
2017-11-05T02:36:11.530Z,11.65
2017-11-05T02:38:44.711Z,11.53
2017-11-05T02:41:19.045Z,11.34
2017-11-05T02:43:52.509Z,11.20
2017-11-05T02:46:28.207Z,11.03
2017-11-05T02:49:03.013Z,11.01
2017-11-05T02:51:38.510Z,10.79
2017-11-05T02:54:32.627Z,10.74
2017-11-05T02:57:09.710Z,10.68
2017-11-05T02:59:48.858Z,10.46
2017-11-05T03:02:21.514Z,10.47
2017-11-05T03:04:52.782Z,10.23
2017-11-05T03:07:30.211Z,10.24
2017-11-05T03:10:01.268Z,10.16
2017-11-05T03:12:35.763Z,10.07
2017-11-05T03:15:08.869Z,10.06
2017-11-05T03:17:40.595Z,9.99
2017-11-05T03:20:13.152Z,9.85
2017-11-05T03:22:44.241Z,9.91
2017-11-05T03:25:15.107Z,9.71
2017-11-05T03:27:46.375Z,9.72
2017-11-05T03:30:17.560Z,9.69
2017-11-05T03:35:35.053Z,9.80
2017-11-05T03:38:10.694Z,9.77
2017-11-05T03:40:47.195Z,9.72
2017-11-05T03:43:19.684Z,9.71
2017-11-05T03:45:50.839Z,9.64
2017-11-05T03:48:28.556Z,9.66
2017-11-05T03:50:59.696Z,9.63
2017-11-05T03:53:32.424Z,9.77
2017-11-05T03:56:07.631Z,9.94
2017-11-05T03:58:38.771Z,10.07
2017-11-05T04:01:10.064Z,10.18
2017-11-05T04:03:46.925Z,10.25
2017-11-05T04:06:20.559Z,10.28
2017-11-05T04:08:52.459Z,10.29
2017-11-05T04:11:32.787Z,10.35
2017-11-05T04:14:05.666Z,10.43
2017-11-05T04:16:38.593Z,10.48
2017-11-05T04:19:09.959Z,10.51
2017-11-05T04:21:50.376Z,10.56
2017-11-05T04:24:26.876Z,10.57
2017-11-05T04:26:59.245Z,10.62
2017-11-05T04:29:31.861Z,10.65
2017-11-05T04:32:18.557Z,10.68
2017-11-05T04:34:52.130Z,10.75
2017-11-05T04:37:30.166Z,10.73
2017-11-05T04:40:01.818Z,10.70
2017-11-05T04:42:32.982Z,10.60
2017-11-05T04:45:08.021Z,10.60
2017-11-05T04:47:43.869Z,10.55
2017-11-05T04:50:16.403Z,10.50
2017-11-05T04:52:50.777Z,10.53
2017-11-05T04:58:00.855Z,10.49
2017-11-05T05:00:35.180Z,10.52
2017-11-05T05:03:12.702Z,10.53
2017-11-05T05:05:44.614Z,10.51
2017-11-05T05:08:16.874Z,10.53
2017-11-05T05:10:50.074Z,10.52
2017-11-05T05:13:35.296Z,10.50
2017-11-05T05:16:11.728Z,10.53
2017-11-05T05:18:45.685Z,10.44
2017-11-05T05:21:17.662Z,10.50
2017-11-05T05:23:51.617Z,10.48
2017-11-05T05:26:33.125Z,10.47
2017-11-05T05:29:18.428Z,10.48
2017-11-05T05:31:53.275Z,10.43
2017-11-05T05:34:46.051Z,10.35
2017-11-05T05:40:12.374Z,10.35
2017-11-05T05:42:55.622Z,10.28
2017-11-05T05:45:30.718Z,10.32
2017-11-05T05:48:04.121Z,10.37
2017-11-05T05:50:39.730Z,10.39
2017-11-05T05:53:29.499Z,10.40
2017-11-05T05:56:00.957Z,10.39
2017-11-05T05:58:31.916Z,10.43
2017-11-05T06:01:03.898Z,10.43
2017-11-05T06:03:42.495Z,10.47
2017-11-05T06:06:20.620Z,10.50
2017-11-05T06:08:58.294Z,10.49
2017-11-05T06:11:30.926Z,10.49
2017-11-05T06:14:03.105Z,10.47
2017-11-05T06:16:34.343Z,10.47
2017-11-05T06:19:14.094Z,10.49
2017-11-05T06:21:49.931Z,10.45
2017-11-05T06:24:38.609Z,10.40
2017-11-05T06:27:12.620Z,10.29
2017-11-05T06:29:48.475Z,10.35
2017-11-05T06:32:24.195Z,10.23
2017-11-05T06:35:02.611Z,10.10
2017-11-05T06:37:37.290Z,10.09
2017-11-05T06:40:12.935Z,10.19
2017-11-05T06:42:47.931Z,10.28
2017-11-05T06:45:19.318Z,10.31
2017-11-05T06:48:00.147Z,10.37
2017-11-05T06:50:34.124Z,10.42
2017-11-05T06:53:09.053Z,10.46
2017-11-05T06:58:25.190Z,10.54
2017-11-05T07:00:58.218Z,10.59
2017-11-05T07:03:32.642Z,10.61
2017-11-05T07:09:05.042Z,10.71
2017-11-05T07:11:37.485Z,10.74
2017-11-05T07:14:09.859Z,10.74
2017-11-05T07:16:43.274Z,10.63
2017-11-05T07:19:14.382Z,10.64
2017-11-05T07:21:50.003Z,10.70
2017-11-05T07:24:27.163Z,10.69
2017-11-05T07:27:04.047Z,10.76
2017-11-05T07:29:36.547Z,10.77
2017-11-05T07:32:08.160Z,10.81
2017-11-05T07:34:40.795Z,10.84
2017-11-05T07:37:17.858Z,10.85
2017-11-05T07:39:49.728Z,10.87
2017-11-05T07:42:20.950Z,10.85
2017-11-05T07:44:52.578Z,10.90
2017-11-05T07:47:24.377Z,11.01
2017-11-05T07:49:55.684Z,11.06
2017-11-05T07:52:26.963Z,11.16
2017-11-05T07:54:58.335Z,11.21
2017-11-05T07:57:29.703Z,11.29
2017-11-05T08:00:06.620Z,11.32
2017-11-05T08:02:38.812Z,11.32
2017-11-05T08:05:11.714Z,11.36
2017-11-05T08:07:43.030Z,11.39
2017-11-05T08:10:14.632Z,11.44
2017-11-05T08:12:45.715Z,11.46
2017-11-05T08:15:17.330Z,11.50
2017-11-05T08:17:48.745Z,11.53
2017-11-05T08:20:24.524Z,11.56
2017-11-05T08:22:56.557Z,11.57
2017-11-05T08:25:28.246Z,11.62
2017-11-05T08:28:03.470Z,11.61
2017-11-05T08:30:39.742Z,11.65
2017-11-05T08:33:10.890Z,11.69
2017-11-05T08:35:44.713Z,11.74
2017-11-05T08:38:16.068Z,11.79
2017-11-05T08:40:48.174Z,11.81
2017-11-05T08:43:20.830Z,11.81
2017-11-05T08:45:53.068Z,11.82
2017-11-05T08:48:24.024Z,11.86
2017-11-05T08:50:56.135Z,11.90
2017-11-05T08:53:27.439Z,11.90
2017-11-05T08:56:00.064Z,11.93
2017-11-05T08:58:31.563Z,11.91
2017-11-05T09:01:03.364Z,11.98
2017-11-05T09:03:55.373Z,11.97
2017-11-05T09:06:27.683Z,11.99
2017-11-05T09:09:26.105Z,12.03
2017-11-05T09:14:46.680Z,12.07
2017-11-05T09:17:18.878Z,12.14
2017-11-05T09:19:51.992Z,12.14
2017-11-05T09:22:24.933Z,12.14
2017-11-05T09:25:03.039Z,12.18
2017-11-05T09:27:35.242Z,12.20
2017-11-05T09:30:08.530Z,12.27
2017-11-05T09:32:42.102Z,12.37
2017-11-05T09:35:15.216Z,12.44
2017-11-05T09:37:51.304Z,12.56
2017-11-05T09:40:34.882Z,12.58
2017-11-05T09:43:12.837Z,12.62
2017-11-05T09:45:51.816Z,12.68
2017-11-05T09:48:27.348Z,12.70
2017-11-05T09:51:02.398Z,12.79
2017-11-05T09:53:34.549Z,12.84
2017-11-05T09:56:08.133Z,12.91
2017-11-05T09:58:42.879Z,13.00
2017-11-05T10:01:21.487Z,13.03
2017-11-05T10:03:58.450Z,13.09
2017-11-05T10:06:30.494Z,13.14
2017-11-05T10:09:05.566Z,13.15
2017-11-05T10:11:36.994Z,13.26
2017-11-05T10:14:10.659Z,13.30
2017-11-05T10:16:43.732Z,13.34
2017-11-05T10:19:24.293Z,13.33
2017-11-05T10:22:02.043Z,13.38
2017-11-05T10:24:45.369Z,13.37
2017-11-05T10:27:22.766Z,13.30
2017-11-05T10:36:13.676Z,13.32
2017-11-05T10:38:56.261Z,13.32
2017-11-05T10:41:48.461Z,13.41
2017-11-05T10:44:26.122Z,13.45
2017-11-05T10:47:02.298Z,13.49
2017-11-05T10:49:38.389Z,13.53
2017-11-05T10:52:13.395Z,13.56
2017-11-05T10:54:45.693Z,13.56
2017-11-05T10:57:18.180Z,13.53
2017-11-05T10:59:51.213Z,13.53
2017-11-05T11:02:26.569Z,13.59
2017-11-05T11:05:00.102Z,13.62
2017-11-05T11:07:36.012Z,13.67
2017-11-05T11:10:11.972Z,13.71
2017-11-05T11:12:47.278Z,13.66
2017-11-05T11:15:21.942Z,13.66
2017-11-05T11:17:56.798Z,13.75
2017-11-05T11:23:22.292Z,13.63
2017-11-05T11:25:56.833Z,13.56
2017-11-05T11:28:40.157Z,13.60
2017-11-05T11:31:11.643Z,13.54
2017-11-05T11:33:45.719Z,13.51
2017-11-05T11:36:17.634Z,13.41
2017-11-05T11:38:50.868Z,13.49
2017-11-05T11:41:26.603Z,13.42
2017-11-05T11:44:06.196Z,13.35
2017-11-05T11:46:38.120Z,13.22
2017-11-05T11:49:10.124Z,13.09
2017-11-05T11:51:42.713Z,12.93
2017-11-05T11:54:13.763Z,12.95
2017-11-05T11:56:47.023Z,12.79
2017-11-05T11:59:18.630Z,12.70
2017-11-05T12:01:52.785Z,12.70
2017-11-05T12:04:47.226Z,12.48
2017-11-05T12:07:18.667Z,12.42
2017-11-05T12:09:50.082Z,12.42
2017-11-05T12:12:22.420Z,12.32
2017-11-05T12:14:55.548Z,12.44
2017-11-05T12:17:26.654Z,12.39
2017-11-05T12:20:00.050Z,12.41
2017-11-05T12:22:32.161Z,12.35
2017-11-05T12:25:08.899Z,12.30
2017-11-05T12:27:42.811Z,12.20
2017-11-05T12:30:15.902Z,12.19
2017-11-05T12:32:51.214Z,12.12
2017-11-05T12:35:23.564Z,11.96
2017-11-05T12:37:58.746Z,11.98
2017-11-05T12:41:23.219Z,11.93
2017-11-05T12:43:59.124Z,11.89
2017-11-05T12:50:06.652Z,11.73
2017-11-05T12:52:44.179Z,11.66
2017-11-05T12:55:16.206Z,11.59
2017-11-05T12:57:49.149Z,11.64
2017-11-05T13:00:21.665Z,11.60
2017-11-05T13:02:53.624Z,11.61
2017-11-05T13:05:25.605Z,11.56
2017-11-05T13:07:57.833Z,11.49
2017-11-05T13:10:29.282Z,11.58
2017-11-05T13:13:04.124Z,11.54
2017-11-05T13:15:40.993Z,11.52
2017-11-05T13:18:13.764Z,11.48
2017-11-05T13:20:48.461Z,11.52
2017-11-05T13:23:23.422Z,11.24
2017-11-05T13:25:55.017Z,10.81
2017-11-05T13:28:26.347Z,10.80
2017-11-05T13:30:58.093Z,10.45
2017-11-05T13:33:29.655Z,9.61
2017-11-05T13:36:02.961Z,9.14
2017-11-05T13:38:34.923Z,9.27
2017-11-05T13:41:07.051Z,9.11
2017-11-05T13:43:40.882Z,8.94
2017-11-05T13:46:12.858Z,8.98
2017-11-05T13:48:44.750Z,9.03
2017-11-05T13:51:17.885Z,8.87
2017-11-05T13:53:52.380Z,8.83
2017-11-05T13:56:24.234Z,8.57
2017-11-05T13:58:56.776Z,8.45
2017-11-05T14:01:28.754Z,8.43
2017-11-05T14:04:00.930Z,8.37
2017-11-05T14:06:36.280Z,8.47
2017-11-05T14:09:09.393Z,8.38
2017-11-05T14:11:42.336Z,8.65
2017-11-05T14:14:14.400Z,8.50
2017-11-05T14:16:47.452Z,8.56
2017-11-05T14:19:21.876Z,8.50
2017-11-05T14:21:54.466Z,8.50
2017-11-05T14:24:32.126Z,8.41
2017-11-05T14:27:05.789Z,8.23
2017-11-05T14:29:41.021Z,8.29
2017-11-05T14:32:15.717Z,8.26
2017-11-05T14:34:52.068Z,8.28
2017-11-05T14:37:23.360Z,8.27
2017-11-05T14:39:55.518Z,8.39
2017-11-05T14:42:29.202Z,8.23
2017-11-05T14:45:03.021Z,8.23
2017-11-05T14:47:38.811Z,8.35
2017-11-05T14:50:15.037Z,8.18
2017-11-05T14:52:53.160Z,7.99
2017-11-05T14:55:25.833Z,8.06
2017-11-05T14:57:57.780Z,8.03
2017-11-05T15:00:32.142Z,7.93
2017-11-05T15:03:05.930Z,7.95
2017-11-05T15:05:37.210Z,7.89
2017-11-05T15:10:47.691Z,7.88
2017-11-05T15:13:19.593Z,7.88
2017-11-05T15:15:53.029Z,7.90
2017-11-05T15:18:25.366Z,7.91
2017-11-05T15:20:57.394Z,7.82
2017-11-05T15:23:32.087Z,7.76
2017-11-05T15:26:04.375Z,7.86
2017-11-05T15:28:38.962Z,7.77
2017-11-05T15:31:10.408Z,7.70
2017-11-05T15:33:43.913Z,7.79
2017-11-05T15:36:16.303Z,7.73
2017-11-05T15:38:49.200Z,7.72
2017-11-05T15:41:20.691Z,7.68
2017-11-05T15:43:54.798Z,7.69
2017-11-05T15:46:27.708Z,7.70
2017-11-05T15:48:59.707Z,7.62
2017-11-05T15:51:35.381Z,7.60
2017-11-05T15:54:10.242Z,7.63
2017-11-05T15:56:45.879Z,7.49
2017-11-05T15:59:18.936Z,7.55
2017-11-05T16:01:53.341Z,7.58
2017-11-05T16:04:26.078Z,7.59
2017-11-05T16:06:59.280Z,7.54
2017-11-05T16:09:31.892Z,7.54
2017-11-05T16:12:05.053Z,7.60
2017-11-05T16:14:37.462Z,7.61
2017-11-05T16:17:09.075Z,7.68
2017-11-05T16:19:40.838Z,7.69
2017-11-05T16:22:12.264Z,7.76
2017-11-05T16:24:44.689Z,7.86
2017-11-05T16:30:49.690Z,7.56
2017-11-05T16:33:21.563Z,7.48
2017-11-05T16:35:55.107Z,7.54
2017-11-05T16:38:26.581Z,7.43
2017-11-05T16:40:59.512Z,7.60
2017-11-05T16:43:31.206Z,7.46
2017-11-05T16:46:05.387Z,7.46
2017-11-05T16:48:37.123Z,7.46
2017-11-05T16:51:09.215Z,7.34
2017-11-05T16:53:40.604Z,7.46
2017-11-05T16:56:13.561Z,7.33
2017-11-05T16:58:45.074Z,7.38
2017-11-05T17:01:16.311Z,7.39
2017-11-05T17:03:47.165Z,7.45
2017-11-05T17:06:19.022Z,7.39
2017-11-05T17:08:51.327Z,7.26
2017-11-05T17:11:22.478Z,7.21
2017-11-05T17:13:55.289Z,7.31
2017-11-05T17:16:29.067Z,7.23
2017-11-05T17:19:00.324Z,7.33
2017-11-05T17:21:31.381Z,7.30
2017-11-05T17:24:04.014Z,7.10
2017-11-05T17:26:34.929Z,7.11
2017-11-05T17:29:07.641Z,7.01
2017-11-05T17:31:38.736Z,7.00
2017-11-05T17:34:09.930Z,6.90
2017-11-05T17:36:40.790Z,6.99
2017-11-05T17:39:12.044Z,7.00
2017-11-05T17:41:44.560Z,6.89
2017-11-05T17:44:17.702Z,6.79
2017-11-05T17:46:52.286Z,6.95
2017-11-05T17:49:23.583Z,7.01
2017-11-05T17:51:54.638Z,7.00
2017-11-05T17:54:26.951Z,6.94
2017-11-05T17:56:58.051Z,6.95
2017-11-05T17:59:32.623Z,6.96
2017-11-05T18:02:06.343Z,6.89
2017-11-05T18:04:38.921Z,6.84
2017-11-05T18:07:09.830Z,6.97
2017-11-05T18:09:42.435Z,6.89
2017-11-05T18:12:13.311Z,6.94
2017-11-05T18:14:44.660Z,6.94
2017-11-05T18:17:22.485Z,6.92
2017-11-05T18:19:57.650Z,6.99
2017-11-05T18:22:30.703Z,7.01
2017-11-05T18:25:04.818Z,7.03
2017-11-05T18:28:21.987Z,7.05
2017-11-05T18:30:56.123Z,7.12
2017-11-05T18:33:27.711Z,7.11
2017-11-05T18:36:00.170Z,7.14
2017-11-05T18:38:33.270Z,7.07
2017-11-05T18:41:04.424Z,7.11
2017-11-05T18:43:37.720Z,7.11
2017-11-05T18:46:12.928Z,7.11
2017-11-05T18:49:01.001Z,7.10
2017-11-05T18:51:43.310Z,7.06
2017-11-05T19:00:26.269Z,7.01
2017-11-05T19:02:58.889Z,7.01
2017-11-05T19:05:33.248Z,7.09
2017-11-05T19:08:04.429Z,7.11
2017-11-05T19:10:37.244Z,7.07
2017-11-05T19:13:09.573Z,7.07
2017-11-05T19:15:41.567Z,7.01
2017-11-05T19:18:14.185Z,7.10
2017-11-05T19:20:46.300Z,7.07
2017-11-05T19:23:18.396Z,7.16
2017-11-05T19:25:51.948Z,7.20
2017-11-05T19:28:25.749Z,7.19
2017-11-05T19:30:57.077Z,7.17
2017-11-05T19:33:28.712Z,7.23
2017-11-05T19:36:00.386Z,7.18
2017-11-05T19:38:32.146Z,7.22
2017-11-05T19:41:05.393Z,7.17
2017-11-05T19:43:37.670Z,7.18
2017-11-05T19:46:17.119Z,7.24
2017-11-05T19:48:48.959Z,7.20
2017-11-05T19:51:21.779Z,7.09
2017-11-05T19:53:55.296Z,7.09
2017-11-05T19:56:29.506Z,7.16
2017-11-05T19:59:02.219Z,7.19
2017-11-05T20:01:35.962Z,7.17
2017-11-05T20:04:10.159Z,7.19
2017-11-05T20:06:42.731Z,7.11
2017-11-05T20:09:16.012Z,7.11
2017-11-05T20:11:50.345Z,7.09
2017-11-05T20:14:25.952Z,7.10
2017-11-05T20:16:58.391Z,7.09
2017-11-05T20:19:31.214Z,7.05
2017-11-05T20:22:04.398Z,7.09
2017-11-05T20:24:40.008Z,7.04
2017-11-05T20:27:12.236Z,7.03
2017-11-05T20:29:47.263Z,7.00
2017-11-05T20:32:20.469Z,7.00
2017-11-05T20:34:52.809Z,6.95
2017-11-05T20:37:30.707Z,6.98
2017-11-05T20:40:08.879Z,7.02
2017-11-05T20:42:41.896Z,6.96
2017-11-05T20:45:15.955Z,7.03
2017-11-05T20:47:49.172Z,6.92
2017-11-05T20:50:22.211Z,6.92
2017-11-05T20:52:58.637Z,6.93
2017-11-05T20:55:31.450Z,6.82
2017-11-05T20:58:03.382Z,6.81
2017-11-05T21:00:34.789Z,6.84
2017-11-05T21:03:06.180Z,6.87
2017-11-05T21:05:40.969Z,6.84
2017-11-05T21:08:17.868Z,6.81
2017-11-05T21:10:50.159Z,6.89
2017-11-05T21:13:21.665Z,6.82
2017-11-05T21:15:55.004Z,6.78
2017-11-05T21:18:27.975Z,6.82
2017-11-05T21:21:01.929Z,6.87
2017-11-05T21:23:33.139Z,6.86
2017-11-05T21:26:05.606Z,6.82
2017-11-05T21:28:38.286Z,6.86
2017-11-05T21:31:10.037Z,6.83
2017-11-05T21:33:42.451Z,6.77
2017-11-05T21:36:16.512Z,6.79
2017-11-05T21:38:51.952Z,6.71
2017-11-05T21:41:22.953Z,6.67
2017-11-05T21:43:54.900Z,6.62
2017-11-05T21:46:26.575Z,6.60
2017-11-05T21:49:01.218Z,6.67
2017-11-05T21:51:32.731Z,6.64
2017-11-05T21:54:04.097Z,6.66
2017-11-05T21:56:36.080Z,6.67
2017-11-05T21:59:07.056Z,6.69
2017-11-05T22:01:40.036Z,6.63
2017-11-05T22:04:14.202Z,6.62
2017-11-05T22:06:45.887Z,6.65
2017-11-05T22:09:18.733Z,6.63
2017-11-05T22:11:52.118Z,6.70
2017-11-05T22:14:27.055Z,6.65
2017-11-05T22:16:57.919Z,6.66
2017-11-05T22:19:30.020Z,6.62
2017-11-05T22:22:03.202Z,6.65
2017-11-05T22:24:35.116Z,6.62
2017-11-05T22:27:07.756Z,6.61
2017-11-05T22:29:40.176Z,6.59
2017-11-05T22:32:12.562Z,6.58
2017-11-05T22:34:46.672Z,6.56
2017-11-05T22:37:17.541Z,6.61
2017-11-05T22:39:49.509Z,6.53
2017-11-05T22:42:23.296Z,6.52
2017-11-05T22:44:54.666Z,6.57
2017-11-05T22:47:26.095Z,6.63
2017-11-05T22:49:57.706Z,6.57
2017-11-05T22:52:30.642Z,6.52
2017-11-05T22:55:03.472Z,6.48
2017-11-05T22:57:34.998Z,6.50
2017-11-05T23:00:06.696Z,6.50
2017-11-05T23:02:37.673Z,6.48
2017-11-05T23:05:13.376Z,6.53
2017-11-05T23:07:45.474Z,6.55
2017-11-05T23:10:19.021Z,6.63
2017-11-05T23:12:50.177Z,6.51
2017-11-05T23:15:23.349Z,6.43
2017-11-05T23:17:54.878Z,6.54
2017-11-05T23:20:26.276Z,6.59
2017-11-05T23:22:57.176Z,6.51
2017-11-05T23:25:28.440Z,6.59
2017-11-05T23:27:59.195Z,6.60
2017-11-05T23:30:30.405Z,6.53
2017-11-05T23:33:02.424Z,6.51
2017-11-05T23:35:33.286Z,6.56
2017-11-05T23:38:05.258Z,6.58
2017-11-05T23:40:36.878Z,6.47
2017-11-05T23:43:08.920Z,6.45
2017-11-05T23:45:39.550Z,6.49
2017-11-05T23:48:11.288Z,6.49
2017-11-05T23:50:43.063Z,6.47
2017-11-05T23:53:14.048Z,6.51
2017-11-05T23:55:46.661Z,6.46
2017-11-05T23:58:19.406Z,6.40
